Red Wing, Minnesota
Current Conditions -  °F | °C
As of 1:48 PM on Thursday 23 Oct 2014 (Local Time) from KRGK Reporting Station
Overcast Overcast  
Wind Chill: 55°   Ceiling: 800
Heat Index: 55°   Visibility: 7mi
Dew Point: 52°   Wind: 0mph
Humidity: 88%   Direction: NA
Pressure: 30"   Gusts: NA
Location:  44.57°N, 92.53°W
Report Text: KRGK 231848Z AUTO 00000KT 7SM OVC008 13/11 A3000 RMK AO2
Loading
Personal Weather Stations






























Interactive Weather Map New forecast layout! Learn more

10-Day Weather Forecast

Advertisements
Track Severe Weather on mobile